Time;durP1;ratioP1;P1;durP2;ratioP2;P2;SDS_P1;SDS_P2;PMS_P1;PMS_P2;Temp;Humidity;BMP_temperature;BMP_pressure;BME280_temperature;BME280_humidity;BME280_pressure;Samples;Min_cycle;Max_cycle;Signal;HPM_P1;HPM_P2
2023/11/01 00:00:15;;;;;;;;;;;;;;;16.83;45.90;100236.66;5096851;28;1117;-44
2023/11/01 00:02:41;;;;;;;;;;;;;;;16.85;45.28;100252.84;5087548;28;1906;-44
2023/11/01 00:05:07;;;;;;;;;;;;;;;17.82;47.64;100244.69;5097173;28;1041;-43
2023/11/01 00:07:32;;;;;;;;;;;;;;;17.07;48.00;100239.47;5083424;28;1158;-44
2023/11/01 00:09:58;;;;;;;;;;;;;;;16.92;47.48;100245.09;5096723;28;1116;-44
2023/11/01 00:12:24;;;;;;;;;;;;;;;16.97;46.59;100233.25;5093455;28;1069;-43
2023/11/01 00:14:49;;;;;;;;;;;;;;;16.84;45.81;100237.47;5076327;28;903;-43
2023/11/01 00:17:15;;;;;;;;;;;;;;;16.75;45.59;100235.34;5090460;28;1055;-43
2023/11/01 00:19:40;;;;;;;;;;;;;;;16.72;45.18;100222.19;5086214;28;1031;-44
2023/11/01 00:22:06;;;;;;;;;;;;;;;17.40;47.23;100225.94;5083048;28;1138;-45
2023/11/01 00:24:32;;;;;;;;;;;;;;;16.97;47.27;100236.84;5086863;28;1909;-44
2023/11/01 00:26:57;;;;;;;;;;;;;;;16.79;46.69;100229.25;5082742;28;1077;-44
2023/11/01 00:29:23;;;;;;;;;;;;;;;16.76;46.09;100228.75;5086949;28;1216;-42
2023/11/01 00:31:48;;;;;;;;;;;;;;;17.71;46.77;100217.31;5092435;28;1077;-44
2023/11/01 00:34:14;;;;;;;;;;;;;;;17.11;47.26;100242.47;5086837;28;1138;-45
2023/11/01 00:36:39;;;;;;;;;;;;;;;16.83;46.83;100230.31;5089991;28;1114;-44
2023/11/01 00:39:05;;;;;;;;;;;;;;;16.95;45.98;100222.56;5081304;28;888;-45
2023/11/01 00:41:30;;;;;;;;;;;;;;;16.81;45.35;100235.28;5061231;28;1093;-42
2023/11/01 00:43:56;;;;;;;;;;;;;;;17.05;46.32;100233.44;5076771;28;1902;-43
2023/11/01 00:46:21;;;;;;;;;;;;;;;17.38;47.08;100235.59;5089274;28;941;-45
2023/11/01 00:48:47;;;;;;;;;;;;;;;16.93;47.08;100236.56;5058576;28;1079;-44
2023/11/01 00:51:12;;;;;;;;;;;;;;;16.74;46.50;100239.19;5062413;28;2692;-45
2023/11/01 00:53:38;;;;;;;;;;;;;;;16.67;45.95;100244.19;5096188;28;1061;-44
2023/11/01 00:56:03;;;;;;;;;;;;;;;16.65;45.28;100240.09;5080687;28;986;-45
2023/11/01 00:58:29;;;;;;;;;;;;;;;16.61;44.93;100228.88;5085467;28;1151;-44
2023/11/01 01:00:55;;;;;;;;;;;;;;;16.96;45.95;100239.84;5093236;28;1025;-46
2023/11/01 01:03:20;;;;;;;;;;;;;;;16.95;46.86;100228.03;5058152;28;1979;-43
2023/11/01 01:05:46;;;;;;;;;;;;;;;16.75;46.42;100231.78;5091738;28;1142;-46
2023/11/01 01:08:11;;;;;;;;;;;;;;;17.66;47.27;100231.13;5095780;28;1456;-44
2023/11/01 01:10:37;;;;;;;;;;;;;;;17.00;47.58;100229.91;5080415;28;1177;-42
2023/11/01 01:13:02;;;;;;;;;;;;;;;16.91;46.77;100232.47;5084979;28;1111;-47
2023/11/01 01:15:28;;;;;;;;;;;;;;;17.91;47.73;100223.69;5081587;28;1022;-44
2023/11/01 01:17:53;;;;;;;;;;;;;;;17.22;48.27;100226.69;5078420;28;1161;-44
2023/11/01 01:20:19;;;;;;;;;;;;;;;16.97;47.38;100216.78;5081915;28;1106;-47
2023/11/01 01:22:44;;;;;;;;;;;;;;;16.84;46.79;100226.47;5091249;28;1980;-44
2023/11/01 01:25:10;;;;;;;;;;;;;;;16.77;46.18;100233.13;5064345;28;1250;-42
2023/11/01 01:27:35;;;;;;;;;;;;;;;17.75;47.13;100250.53;5085253;28;912;-44
2023/11/01 01:30:01;;;;;;;;;;;;;;;17.24;48.05;100240.97;5063459;28;1186;-42
2023/11/01 01:32:30;;;;;;;;;;;;;;;17.01;47.18;100237.91;5100125;28;1038;-43
2023/11/01 01:34:56;;;;;;;;;;;;;;;16.92;46.33;100247.84;5081766;28;1135;-48
2023/11/01 01:37:21;;;;;;;;;;;;;;;17.53;47.26;100248.31;5081585;28;1435;-41
2023/11/01 01:39:47;;;;;;;;;;;;;;;17.16;47.63;100245.13;5081306;28;1163;-43
2023/11/01 01:42:13;;;;;;;;;;;;;;;17.01;47.00;100240.63;5068610;28;1894;-41
2023/11/01 01:44:39;;;;;;;;;;;;;;;16.84;46.32;100245.69;5094757;28;1117;-43
2023/11/01 01:47:05;;;;;;;;;;;;;;;17.50;47.83;100247.00;5095683;28;1051;-43
2023/11/01 01:49:30;;;;;;;;;;;;;;;17.05;47.36;100254.59;5085919;28;1178;-42
2023/11/01 01:51:56;;;;;;;;;;;;;;;16.98;47.53;100249.44;5065597;28;924;-44
2023/11/01 01:54:21;;;;;;;;;;;;;;;17.39;47.56;100245.44;5092510;28;1147;-42
2023/11/01 01:56:47;;;;;;;;;;;;;;;17.00;47.29;100247.22;5088453;28;1107;-45
2023/11/01 01:59:12;;;;;;;;;;;;;;;16.97;46.45;100247.81;5067741;28;1301;-42
2023/11/01 02:01:38;;;;;;;;;;;;;;;16.81;46.11;100249.84;5072513;28;1194;-44
2023/11/01 02:04:04;;;;;;;;;;;;;;;17.71;47.26;100243.97;5073827;28;1924;-43
2023/11/01 02:06:29;;;;;;;;;;;;;;;17.21;47.25;100241.53;5069754;28;1115;-44
2023/11/01 02:08:55;;;;;;;;;;;;;;;16.97;46.76;100236.84;5067650;28;1582;-46
2023/11/01 02:11:20;;;;;;;;;;;;;;;16.89;46.15;100241.00;5102951;28;1105;-45
2023/11/01 02:13:46;;;;;;;;;;;;;;;16.80;45.63;100230.91;5088044;28;1239;-45
2023/11/01 02:16:11;;;;;;;;;;;;;;;16.71;45.27;100238.94;5086601;28;944;-42
2023/11/01 02:18:37;;;;;;;;;;;;;;;16.65;45.00;100246.41;5076221;28;1206;-44
2023/11/01 02:21:04;;;;;;;;;;;;;;;16.57;45.05;100244.28;5080712;28;1227;-48
2023/11/01 02:23:32;;;;;;;;;;;;;;;17.53;46.65;100249.16;5079681;28;1976;-42
2023/11/01 02:25:58;;;;;;;;;;;;;;;17.04;46.94;100237.31;5098455;28;1169;-45
2023/11/01 02:28:24;;;;;;;;;;;;;;;16.90;46.04;100241.81;5091308;28;879;-43
2023/11/01 02:30:49;;;;;;;;;;;;;;;16.73;45.77;100254.03;5099055;28;1113;-43
2023/11/01 02:33:15;;;;;;;;;;;;;;;17.10;46.29;100252.63;5097097;28;1169;-42
2023/11/01 02:35:41;;;;;;;;;;;;;;;17.26;47.53;100256.03;5086261;28;1139;-42
2023/11/01 02:38:07;;;;;;;;;;;;;;;16.95;47.15;100261.00;5064934;28;1038;-46
2023/11/01 02:40:35;;;;;;;;;;;;;;;16.77;46.49;100254.25;5077770;28;1221;-45
2023/11/01 02:43:00;;;;;;;;;;;;;;;16.75;45.84;100251.00;5096248;28;1964;-43
2023/11/01 02:45:25;;;;;;;;;;;;;;;16.67;45.45;100251.63;5082888;28;1087;-42
2023/11/01 02:47:51;;;;;;;;;;;;;;;17.27;46.86;100240.38;5065184;28;1512;-45
2023/11/01 02:50:17;;;;;;;;;;;;;;;16.85;46.88;100237.16;5082611;28;1142;-43
2023/11/01 02:52:42;;;;;;;;;;;;;;;16.69;46.42;100236.50;5076660;28;1120;-43
2023/11/01 02:55:09;;;;;;;;;;;;;;;16.67;45.81;100235.13;5079932;28;1058;-46
2023/11/01 02:57:34;;;;;;;;;;;;;;;17.85;46.83;100227.56;5096931;28;1075;-44
2023/11/01 03:00:00;;;;;;;;;;;;;;;17.19;47.75;100239.06;5078213;28;1047;-46
2023/11/01 03:02:26;;;;;;;;;;;;;;;16.98;46.80;100234.91;5091540;28;1909;-43
2023/11/01 03:04:51;;;;;;;;;;;;;;;16.74;46.50;100238.38;5060091;28;1114;-42
2023/11/01 03:07:16;;;;;;;;;;;;;;;16.87;46.42;100236.88;5091326;28;1097;-43
2023/11/01 03:09:42;;;;;;;;;;;;;;;17.29;47.46;100232.63;5085534;28;1050;-44
2023/11/01 03:12:08;;;;;;;;;;;;;;;17.12;46.78;100232.28;5084072;28;1002;-43
2023/11/01 03:14:33;;;;;;;;;;;;;;;16.87;46.51;100236.88;5067299;28;1222;-42
2023/11/01 03:16:59;;;;;;;;;;;;;;;16.77;45.97;100244.13;5091819;28;936;-46
2023/11/01 03:19:24;;;;;;;;;;;;;;;16.74;45.48;100244.66;5077925;28;1082;-46
2023/11/01 03:21:50;;;;;;;;;;;;;;;17.36;46.98;100249.63;5091111;28;1071;-46
2023/11/01 03:24:15;;;;;;;;;;;;;;;16.96;46.86;100246.19;5084876;28;1906;-42
2023/11/01 03:26:42;;;;;;;;;;;;;;;16.89;46.25;100256.69;5079059;28;1278;-44
2023/11/01 03:29:07;;;;;;;;;;;;;;;16.65;45.88;100260.13;5089972;28;944;-44
2023/11/01 03:31:33;;;;;;;;;;;;;;;16.92;45.97;100272.56;5091536;28;1102;-42
2023/11/01 03:33:58;;;;;;;;;;;;;;;17.32;47.19;100275.22;5097395;28;1101;-45
2023/11/01 03:36:24;;;;;;;;;;;;;;;16.91;46.91;100254.44;5096835;28;1089;-45
2023/11/01 03:38:49;;;;;;;;;;;;;;;16.82;46.27;100264.41;5084624;28;1038;-42
2023/11/01 03:41:15;;;;;;;;;;;;;;;16.61;45.79;100264.56;5058836;28;1618;-46
2023/11/01 03:43:41;;;;;;;;;;;;;;;16.61;45.34;100264.56;5097220;28;1902;-43
2023/11/01 03:46:06;;;;;;;;;;;;;;;16.87;45.75;100261.59;5092445;28;1089;-44
2023/11/01 03:48:32;;;;;;;;;;;;;;;17.15;47.06;100243.50;5081939;28;1177;-43
2023/11/01 03:50:58;;;;;;;;;;;;;;;16.82;46.59;100207.53;5080232;28;1098;-47
2023/11/01 03:53:24;;;;;;;;;;;;;;;16.73;45.84;100204.63;5091390;28;2232;-44
2023/11/01 03:55:50;;;;;;;;;;;;;;;17.76;46.79;100216.44;5094121;28;2125;-45
2023/11/01 03:58:15;;;;;;;;;;;;;;;17.00;47.22;100225.25;5083607;28;2086;-42
2023/11/01 04:00:41;;;;;;;;;;;;;;;16.93;46.63;100220.09;5084618;28;2207;-45
2023/11/01 04:03:07;;;;;;;;;;;;;;;17.57;47.09;100230.13;5089404;28;1910;-44
2023/11/01 04:05:33;;;;;;;;;;;;;;;17.07;47.23;100244.97;5080458;28;2073;-46
2023/11/01 04:07:58;;;;;;;;;;;;;;;16.73;46.77;100247.72;5087100;28;1981;-45
2023/11/01 04:10:24;;;;;;;;;;;;;;;16.86;45.66;100277.25;5095826;28;1074;-43
2023/11/01 04:12:50;;;;;;;;;;;;;;;16.67;45.80;100277.13;5083973;28;1030;-45
2023/11/01 04:15:16;;;;;;;;;;;;;;;16.73;45.74;100275.16;5076614;28;1206;-48
2023/11/01 04:17:42;;;;;;;;;;;;;;;17.50;47.18;100270.91;5085944;28;1022;-43
2023/11/01 04:20:10;;;;;;;;;;;;;;;16.88;47.47;100261.34;5092280;28;1148;-44
2023/11/01 04:22:39;;;;;;;;;;;;;;;16.80;46.58;100259.16;5086199;28;1984;-45
2023/11/01 04:25:09;;;;;;;;;;;;;;;16.73;45.82;100265.00;5092542;28;1252;-44
2023/11/01 04:27:35;;;;;;;;;;;;;;;17.65;46.58;100267.97;5081333;28;1340;-47
2023/11/01 04:30:00;;;;;;;;;;;;;;;17.04;46.98;100283.16;5077392;28;1141;-47
2023/11/01 04:32:29;;;;;;;;;;;;;;;16.86;46.47;100295.66;5096131;28;1066;-41
2023/11/01 04:34:55;;;;;;;;;;;;;;;16.88;46.74;100304.44;5093597;28;1303;-44
2023/11/01 04:37:24;;;;;;;;;;;;;;;17.23;47.58;100308.81;5079672;28;1856;-44
2023/11/01 04:39:50;;;;;;;;;;;;;;;16.91;47.20;100306.63;5090283;28;1094;-43
2023/11/01 04:42:15;;;;;;;;;;;;;;;16.89;46.17;100306.91;5086408;28;849;-45
2023/11/01 04:44:44;;;;;;;;;;;;;;;17.54;46.94;100305.75;5076110;28;1979;-41
2023/11/01 04:47:10;;;;;;;;;;;;;;;17.39;48.11;100298.50;5086080;28;1097;-42
2023/11/01 04:49:36;;;;;;;;;;;;;;;17.09;47.82;100300.41;5092838;28;1185;-42
2023/11/01 04:52:01;;;;;;;;;;;;;;;16.95;47.35;100302.19;5080476;28;1102;-44
2023/11/01 04:54:27;;;;;;;;;;;;;;;16.86;46.58;100306.66;5079103;28;1182;-44
2023/11/01 04:56:52;;;;;;;;;;;;;;;16.98;46.60;100318.09;5085326;28;1025;-45
2023/11/01 04:59:18;;;;;;;;;;;;;;;17.33;47.78;100321.63;5089792;28;1038;-44
2023/11/01 05:01:43;;;;;;;;;;;;;;;16.98;47.54;100334.56;5075851;28;1008;-45
2023/11/01 05:04:10;;;;;;;;;;;;;;;16.95;46.39;100337.09;5089475;28;1917;-44
2023/11/01 05:06:35;;;;;;;;;;;;;;;16.73;46.10;100341.88;5095927;28;1023;-43
2023/11/01 05:09:01;;;;;;;;;;;;;;;17.53;47.79;100341.78;5076228;28;2701;-40
2023/11/01 05:11:26;;;;;;;;;;;;;;;16.98;48.18;100350.25;5086496;28;1034;-42
2023/11/01 05:13:52;;;;;;;;;;;;;;;16.93;47.16;100351.13;5092309;28;1065;-42
2023/11/01 05:16:19;;;;;;;;;;;;;;;16.78;46.57;100349.25;5079691;28;1030;-42
2023/11/01 05:18:44;;;;;;;;;;;;;;;17.79;47.08;100351.41;5092201;28;1168;-48
2023/11/01 05:21:10;;;;;;;;;;;;;;;17.03;48.11;100366.69;5095649;28;1129;-46
2023/11/01 05:23:35;;;;;;;;;;;;;;;16.88;47.55;100373.09;5091871;28;1909;-44
2023/11/01 05:26:01;;;;;;;;;;;;;;;16.86;46.83;100378.06;5084064;28;1170;-42
2023/11/01 05:28:26;;;;;;;;;;;;;;;16.87;46.10;100386.00;5091074;28;1102;-42
2023/11/01 05:30:52;;;;;;;;;;;;;;;16.81;45.97;100383.56;5086946;28;1193;-48
2023/11/01 05:33:18;;;;;;;;;;;;;;;17.85;44.61;100387.94;5088639;28;1154;-46
2023/11/01 05:35:44;;;;;;;;;;;;;;;17.51;45.90;100393.50;5075769;28;1109;-47
2023/11/01 05:38:09;;;;;;;;;;;;;;;17.36;47.25;100387.03;5080096;28;2255;-47
2023/11/01 05:40:35;;;;;;;;;;;;;;;17.18;48.77;100399.53;5088425;28;1082;-49
2023/11/01 05:43:00;;;;;;;;;;;;;;;17.11;49.55;100404.56;5090556;28;1906;-45
2023/11/01 05:45:26;;;;;;;;;;;;;;;16.96;50.05;100412.88;5095520;28;1134;-45
2023/11/01 05:47:52;;;;;;;;;;;;;;;16.89;50.24;100415.97;5095107;28;1018;-44
2023/11/01 05:50:24;;;;;;;;;;;;;;;16.82;50.39;100418.19;5086812;28;1061;-47
2023/11/01 05:52:53;;;;;;;;;;;;;;;16.71;51.11;100420.97;5085808;28;1554;-45
2023/11/01 05:55:18;;;;;;;;;;;;;;;16.76;51.20;100423.69;5095198;28;1077;-43
2023/11/01 05:57:50;;;;;;;;;;;;;;;16.66;51.33;100418.25;5078869;28;1094;-45
2023/11/01 06:00:17;;;;;;;;;;;;;;;17.51;49.79;100416.28;5085844;28;1197;-46
2023/11/01 06:02:43;;;;;;;;;;;;;;;17.33;50.29;100415.06;5081758;28;1972;-44
2023/11/01 06:05:08;;;;;;;;;;;;;;;17.02;51.08;100418.06;5089191;28;1069;-43
2023/11/01 06:07:34;;;;;;;;;;;;;;;16.89;51.42;100432.44;5078488;28;2505;-45
2023/11/01 06:09:59;;;;;;;;;;;;;;;16.76;51.77;100429.19;5089971;28;1050;-42
2023/11/01 06:12:25;;;;;;;;;;;;;;;16.72;52.09;100433.59;5098079;28;1054;-44
2023/11/01 06:14:51;;;;;;;;;;;;;;;16.64;52.03;100436.91;5099340;28;1081;-43
2023/11/01 06:17:16;;;;;;;;;;;;;;;16.43;53.05;100437.00;5098111;28;1065;-44
2023/11/01 06:19:41;;;;;;;;;;;;;;;16.31;53.52;100431.00;5098917;28;1502;-48
2023/11/01 06:22:07;;;;;;;;;;;;;;;16.35;53.77;100429.34;5081232;28;1085;-47
2023/11/01 06:24:32;;;;;;;;;;;;;;;16.75;53.85;100429.47;5078692;28;1909;-46
2023/11/01 06:26:59;;;;;;;;;;;;;;;16.49;54.45;100439.75;5081514;28;1105;-43
2023/11/01 06:29:25;;;;;;;;;;;;;;;16.35;54.61;100440.31;5088311;28;840;-44
2023/11/01 06:31:50;;;;;;;;;;;;;;;16.22;54.72;100438.19;5091818;28;1102;-42
2023/11/01 06:34:16;;;;;;;;;;;;;;;16.18;54.74;100442.59;5078056;28;1015;-41
2023/11/01 06:36:44;;;;;;;;;;;;;;;16.16;54.49;100436.56;5091838;28;1831;-42
2023/11/01 06:39:10;;;;;;;;;;;;;;;16.16;54.42;100445.63;5078372;28;1166;-45
2023/11/01 06:41:36;;;;;;;;;;;;;;;16.12;54.17;100452.75;5089065;28;1103;-46
2023/11/01 06:44:01;;;;;;;;;;;;;;;16.27;54.06;100453.81;5097999;28;1906;-47
2023/11/01 06:46:28;;;;;;;;;;;;;;;16.06;54.02;100465.66;5098010;28;1125;-45
2023/11/01 06:48:53;;;;;;;;;;;;;;;16.03;54.07;100459.91;5098227;28;1089;-46
2023/11/01 06:51:19;;;;;;;;;;;;;;;16.25;53.95;100459.59;5081246;28;1010;-46
2023/11/01 06:53:45;;;;;;;;;;;;;;;16.17;54.39;100471.13;5079228;28;1135;-45
2023/11/01 06:56:12;;;;;;;;;;;;;;;16.02;54.51;100485.69;5080917;28;1178;-43
2023/11/01 06:58:39;;;;;;;;;;;;;;;15.91;54.77;100493.13;5088035;28;1133;-45
2023/11/01 07:01:06;;;;;;;;;;;;;;;16.92;54.37;100492.28;5094578;28;1074;-44
2023/11/01 07:03:31;;;;;;;;;;;;;;;17.10;54.07;100497.13;5087740;28;1914;-45
2023/11/01 07:05:57;;;;;;;;;;;;;;;16.55;55.29;100493.50;5086226;28;1082;-44
2023/11/01 07:08:22;;;;;;;;;;;;;;;16.36;55.46;100491.38;5077641;28;2585;-44
2023/11/01 07:10:48;;;;;;;;;;;;;;;16.24;55.35;100496.34;5090938;28;1059;-46
2023/11/01 07:13:14;;;;;;;;;;;;;;;16.20;55.56;100496.09;5088169;28;1015;-43
2023/11/01 07:15:39;;;;;;;;;;;;;;;17.55;53.30;100493.53;5097991;28;1041;-45
2023/11/01 07:18:07;;;;;;;;;;;;;;;16.87;54.83;100484.03;5086289;28;972;-44
2023/11/01 07:20:32;;;;;;;;;;;;;;;16.61;54.94;100495.13;5077148;28;1078;-42
2023/11/01 07:22:58;;;;;;;;;;;;;;;16.49;54.97;100494.63;5088427;28;1945;-42
2023/11/01 07:25:23;;;;;;;;;;;;;;;16.40;55.22;100497.94;5093077;28;1205;-44
2023/11/01 07:27:49;;;;;;;;;;;;;;;16.31;55.29;100504.28;5087619;28;1049;-44
2023/11/01 07:30:15;;;;;;;;;;;;;;;16.23;55.10;100495.53;5093702;28;1050;-45
2023/11/01 07:32:40;;;;;;;;;;;;;;;16.17;54.85;100501.28;5087082;28;1051;-43
2023/11/01 07:35:06;;;;;;;;;;;;;;;16.97;54.22;100503.25;5093335;28;1123;-44
2023/11/01 07:37:31;;;;;;;;;;;;;;;17.02;54.28;100503.19;5089392;28;2260;-47
2023/11/01 07:39:57;;;;;;;;;;;;;;;16.74;55.08;100513.75;5080816;28;1163;-44
2023/11/01 07:42:23;;;;;;;;;;;;;;;16.55;55.04;100521.78;5093373;28;847;-48
2023/11/01 07:44:49;;;;;;;;;;;;;;;16.47;55.29;100508.63;5096573;28;1970;-45
2023/11/01 07:47:15;;;;;;;;;;;;;;;16.41;55.08;100515.22;5096806;28;990;-43
2023/11/01 07:49:40;;;;;;;;;;;;;;;16.30;55.15;100519.09;5093532;28;1050;-47
2023/11/01 07:52:06;;;;;;;;;;;;;;;16.25;55.01;100526.25;5087183;28;1011;-43
2023/11/01 07:54:32;;;;;;;;;;;;;;;16.21;54.76;100529.81;5090221;28;1054;-46
2023/11/01 07:56:57;;;;;;;;;;;;;;;16.16;54.80;100524.34;5087124;28;995;-39
2023/11/01 07:59:23;;;;;;;;;;;;;;;16.11;54.47;100527.91;5092903;28;1037;-43
2023/11/01 08:01:48;;;;;;;;;;;;;;;16.04;54.82;100535.59;5078458;28;1138;-45
2023/11/01 08:04:14;;;;;;;;;;;;;;;15.97;54.57;100526.84;5094268;28;1967;-44
2023/11/01 08:06:39;;;;;;;;;;;;;;;16.03;54.45;100523.81;5085046;28;2430;-43
2023/11/01 08:09:05;;;;;;;;;;;;;;;15.96;54.50;100526.00;5080511;28;1233;-43
2023/11/01 08:11:31;;;;;;;;;;;;;;;15.93;54.26;100517.53;5085645;28;986;-44
2023/11/01 08:13:57;;;;;;;;;;;;;;;15.86;54.50;100520.53;5094775;28;1086;-43
2023/11/01 08:16:22;;;;;;;;;;;;;;;15.80;54.28;100525.19;5084618;28;1035;-44
2023/11/01 08:18:48;;;;;;;;;;;;;;;15.76;54.46;100536.97;5085882;28;1057;-43
2023/11/01 08:21:13;;;;;;;;;;;;;;;15.74;54.17;100538.06;5088446;28;1024;-41
2023/11/01 08:23:39;;;;;;;;;;;;;;;15.73;54.23;100539.13;5079847;28;1913;-43
2023/11/01 08:26:05;;;;;;;;;;;;;;;15.71;54.09;100538.59;5075426;28;1137;-43
2023/11/01 08:28:30;;;;;;;;;;;;;;;15.65;54.25;100539.69;5075901;28;1038;-40
2023/11/01 08:30:56;;;;;;;;;;;;;;;15.66;54.07;100541.34;5090836;28;865;-43
2023/11/01 08:33:21;;;;;;;;;;;;;;;15.64;54.23;100540.81;5083041;28;1022;-41
2023/11/01 08:35:47;;;;;;;;;;;;;;;16.15;54.59;100539.97;5087811;28;1054;-42
2023/11/01 08:38:12;;;;;;;;;;;;;;;16.91;54.24;100546.41;5079427;28;2378;-43
2023/11/01 08:40:38;;;;;;;;;;;;;;;16.30;55.20;100541.06;5096291;28;1011;-43
2023/11/01 08:43:05;;;;;;;;;;;;;;;16.13;55.29;100546.84;5093893;28;1906;-40
2023/11/01 08:45:31;;;;;;;;;;;;;;;15.98;55.36;100555.91;5075766;28;974;-42
2023/11/01 08:47:56;;;;;;;;;;;;;;;15.94;54.92;100561.13;5090891;28;1085;-41
2023/11/01 08:50:22;;;;;;;;;;;;;;;15.86;54.95;100565.22;5087868;28;1054;-40
2023/11/01 08:52:47;;;;;;;;;;;;;;;15.80;54.92;100571.81;5075724;28;1259;-43
2023/11/01 08:55:13;;;;;;;;;;;;;;;15.77;54.82;100566.84;5075946;28;929;-44
2023/11/01 08:57:39;;;;;;;;;;;;;;;16.50;54.61;100562.97;5075628;28;1349;-44
2023/11/01 09:00:05;;;;;;;;;;;;;;;16.72;54.82;100559.88;5075763;28;1026;-40
2023/11/01 09:02:33;;;;;;;;;;;;;;;16.30;55.13;100552.03;5090270;28;1906;-39
2023/11/01 09:04:59;;;;;;;;;;;;;;;16.10;55.64;100550.94;5096598;28;1091;-42
2023/11/01 09:07:25;;;;;;;;;;;;;;;16.05;55.07;100549.03;5087154;28;2433;-43
2023/11/01 09:09:50;;;;;;;;;;;;;;;15.99;55.13;100550.16;5084154;28;1050;-42
2023/11/01 09:12:16;;;;;;;;;;;;;;;15.92;54.89;100552.31;5095383;28;1105;-42
2023/11/01 09:14:42;;;;;;;;;;;;;;;15.91;54.92;100550.69;5088135;28;1146;-44
2023/11/01 09:17:07;;;;;;;;;;;;;;;15.81;54.79;100545.19;5089033;28;1055;-42
2023/11/01 09:19:33;;;;;;;;;;;;;;;15.75;54.75;100552.56;5083849;28;883;-41
2023/11/01 09:21:59;;;;;;;;;;;;;;;15.71;54.59;100541.34;5094255;28;1178;-41
2023/11/01 09:24:24;;;;;;;;;;;;;;;15.74;54.80;100535.31;5075446;28;1909;-41
2023/11/01 09:26:50;;;;;;;;;;;;;;;16.28;54.95;100543.25;5077513;28;1085;-40
2023/11/01 09:29:15;;;;;;;;;;;;;;;17.32;53.64;100542.63;5087190;28;1097;-40
2023/11/01 09:31:41;;;;;;;;;;;;;;;16.57;55.27;100551.69;5092906;28;904;-42
2023/11/01 09:34:07;;;;;;;;;;;;;;;16.32;55.50;100550.66;5087075;28;1093;-42
2023/11/01 09:36:34;;;;;;;;;;;;;;;16.17;55.41;100564.38;5088651;28;1194;-43
2023/11/01 09:38:59;;;;;;;;;;;;;;;16.06;55.42;100555.34;5086603;28;2502;-40
2023/11/01 09:41:27;;;;;;;;;;;;;;;16.04;55.02;100552.88;5099593;28;1110;-42
2023/11/01 09:43:59;;;;;;;;;;;;;;;15.98;55.00;100556.72;5090046;28;1980;-40
2023/11/01 09:46:25;;;;;;;;;;;;;;;15.90;54.96;100557.28;5095567;28;1093;-41
2023/11/01 09:48:53;;;;;;;;;;;;;;;15.85;54.83;100551.78;5061109;28;1090;-42
2023/11/01 09:51:20;;;;;;;;;;;;;;;15.83;55.05;100551.25;5096637;28;1201;-41
2023/11/01 09:53:45;;;;;;;;;;;;;;;15.82;55.12;100549.59;5098520;28;1184;-43
2023/11/01 09:56:11;;;;;;;;;;;;;;;17.14;54.12;100546.84;5082839;28;975;-44
2023/11/01 09:58:36;;;;;;;;;;;;;;;16.57;55.38;100541.53;5081129;28;1066;-43
2023/11/01 10:01:02;;;;;;;;;;;;;;;16.33;55.50;100541.31;5094867;28;1154;-42
2023/11/01 10:03:27;;;;;;;;;;;;;;;16.18;55.49;100535.88;5079290;28;1909;-42
2023/11/01 10:05:53;;;;;;;;;;;;;;;16.10;55.24;100526.25;5082409;28;1130;-40
2023/11/01 10:08:19;;;;;;;;;;;;;;;16.06;55.33;100542.47;5089462;28;2481;-41
2023/11/01 10:10:45;;;;;;;;;;;;;;;15.96;55.23;100544.38;5098702;28;1042;-44
2023/11/01 10:13:11;;;;;;;;;;;;;;;15.91;54.87;100534.25;5099134;28;1033;-41
2023/11/01 10:15:38;;;;;;;;;;;;;;;15.89;54.69;100544.66;5063115;28;1078;-43
2023/11/01 10:18:03;;;;;;;;;;;;;;;15.82;54.83;100542.22;5079143;28;1026;-43
2023/11/01 10:20:29;;;;;;;;;;;;;;;15.74;55.01;100538.06;5084616;28;1184;-44
2023/11/01 10:22:55;;;;;;;;;;;;;;;15.73;54.74;100535.59;5088030;28;1907;-43
2023/11/01 10:25:20;;;;;;;;;;;;;;;16.90;54.72;100536.50;5080105;28;1059;-45
2023/11/01 10:27:47;;;;;;;;;;;;;;;16.45;55.33;100537.47;5088259;28;1108;-47
2023/11/01 10:30:12;;;;;;;;;;;;;;;16.19;55.53;100534.78;5097851;28;1065;-45
2023/11/01 10:32:38;;;;;;;;;;;;;;;16.11;55.46;100538.06;5071075;28;1216;-42
2023/11/01 10:35:10;;;;;;;;;;;;;;;16.02;55.19;100529.56;5095049;28;1107;-43
2023/11/01 10:37:35;;;;;;;;;;;;;;;15.96;55.14;100536.97;5090498;28;1971;-43
2023/11/01 10:40:04;;;;;;;;;;;;;;;16.62;55.16;100531.63;5091470;28;1137;-46
2023/11/01 10:42:29;;;;;;;;;;;;;;;16.56;55.05;100534.41;5081141;28;1082;-42
2023/11/01 10:44:55;;;;;;;;;;;;;;;16.25;55.78;100530.91;5084851;28;1910;-42
2023/11/01 10:47:21;;;;;;;;;;;;;;;16.10;55.76;100525.44;5098276;28;1104;-44
2023/11/01 10:49:47;;;;;;;;;;;;;;;16.10;55.26;100530.94;5084449;28;1114;-42
2023/11/01 10:52:12;;;;;;;;;;;;;;;15.99;55.21;100514.50;5068750;28;1035;-43
2023/11/01 10:54:38;;;;;;;;;;;;;;;15.96;55.16;100526.00;5073339;28;1083;-42
2023/11/01 10:57:04;;;;;;;;;;;;;;;15.89;55.15;100514.50;5070511;28;1110;-45
2023/11/01 10:59:31;;;;;;;;;;;;;;;15.85;54.96;100507.91;5094182;28;1049;-43
2023/11/01 11:01:57;;;;;;;;;;;;;;;15.80;54.99;100510.69;5060016;28;1105;-42
2023/11/01 11:04:42;;;;;;;;;;;;;;;15.74;55.11;100501.59;5094566;28;1972;-41
2023/11/01 11:07:27;;;;;;;;;;;;;;;15.83;55.05;100508.19;5079690;28;1944;-41
2023/11/01 11:10:11;;;;;;;;;;;;;;;17.01;54.31;100504.34;5086967;28;1103;-44
2023/11/01 11:12:37;;;;;;;;;;;;;;;16.32;55.73;100512.22;5079205;28;1007;-41
2023/11/01 11:15:04;;;;;;;;;;;;;;;16.16;55.90;100497.75;5078089;28;1027;-44
2023/11/01 11:17:30;;;;;;;;;;;;;;;16.05;55.52;100505.16;5096108;28;1232;-44
2023/11/01 11:20:05;;;;;;;;;;;;;;;15.99;55.36;100503.53;5096075;28;881;-42
2023/11/01 11:22:49;;;;;;;;;;;;;;;15.93;55.38;100501.88;5096427;28;1069;-42
2023/11/01 11:25:33;;;;;;;;;;;;;;;16.70;55.11;100507.16;5096976;28;1400;-45
2023/11/01 11:28:02;;;;;;;;;;;;;;;16.74;55.02;100486.28;5097757;28;1194;-45
2023/11/01 11:30:46;;;;;;;;;;;;;;;16.36;55.92;100487.81;5066868;28;1018;-43
2023/11/01 11:33:12;;;;;;;;;;;;;;;16.29;55.41;100490.84;5090703;28;1111;-41
2023/11/01 11:35:38;;;;;;;;;;;;;;;16.16;55.34;100486.78;5077189;28;1102;-46
2023/11/01 11:38:39;;;;;;;;;;;;;;;16.07;55.37;100485.69;5064156;28;1837;-42
2023/11/01 11:41:13;;;;;;;;;;;;;;;16.04;55.25;100488.97;5035065;28;1105;-46
2023/11/01 11:43:57;;;;;;;;;;;;;;;16.12;55.32;100484.84;5086807;28;1902;-44
2023/11/01 11:46:33;;;;;;;;;;;;;;;16.62;55.44;100479.47;5080323;28;1209;-43
2023/11/01 11:48:59;;;;;;;;;;;;;;;17.44;54.47;100479.03;5088895;28;1107;-40
2023/11/01 11:51:25;;;;;;;;;;;;;;;16.74;55.83;100485.47;5083563;28;1217;-43
2023/11/01 11:53:51;;;;;;;;;;;;;;;16.50;55.94;100482.56;5096629;28;1027;-44
2023/11/01 11:56:17;;;;;;;;;;;;;;;17.13;55.28;100482.00;5070261;28;1027;-43
2023/11/01 11:58:42;;;;;;;;;;;;;;;17.33;54.75;100478.28;5078758;28;1093;-41
2023/11/01 12:01:08;;;;;;;;;;;;;;;16.84;55.76;100484.59;5082520;28;1110;-42
2023/11/01 12:03:33;;;;;;;;;;;;;;;16.64;55.76;100486.34;5096764;28;1898;-41
2023/11/01 12:05:59;;;;;;;;;;;;;;;16.51;55.94;100485.03;5078199;28;1138;-46
2023/11/01 12:08:37;;;;;;;;;;;;;;;17.18;55.22;100478.38;5078214;28;2756;-40
2023/11/01 12:11:02;;;;;;;;;;;;;;;17.35;54.80;100484.31;5090515;28;1139;-43
2023/11/01 12:13:44;;;;;;;;;;;;;;;16.96;55.61;100487.88;5090294;28;1070;-41
2023/11/01 12:16:10;;;;;;;;;;;;;;;16.72;55.86;100493.19;5087720;28;1144;-46
2023/11/01 12:18:35;;;;;;;;;;;;;;;16.66;55.49;100497.03;5076383;28;1233;-40
2023/11/01 12:21:11;;;;;;;;;;;;;;;16.72;55.85;100498.66;5085177;28;840;-42
2023/11/01 12:23:43;;;;;;;;;;;;;;;17.52;54.47;100494.91;5091132;28;1905;-41
2023/11/01 12:26:09;;;;;;;;;;;;;;;16.95;55.60;100508.19;5086420;28;1011;-41
2023/11/01 12:28:34;;;;;;;;;;;;;;;16.81;55.59;100504.41;5079138;28;1022;-39
2023/11/01 12:31:12;;;;;;;;;;;;;;;16.65;55.61;100504.47;5086654;28;1197;-43
2023/11/01 12:33:37;;;;;;;;;;;;;;;16.57;55.55;100499.53;5077821;28;1146;-42
2023/11/01 12:36:03;;;;;;;;;;;;;;;17.40;55.04;100511.78;5076225;28;1018;-44
2023/11/01 12:38:28;;;;;;;;;;;;;;;17.08;55.56;100506.75;5079347;28;1823;-44
2023/11/01 12:40:57;;;;;;;;;;;;;;;16.85;55.76;100502.72;5087600;28;995;-42
2023/11/01 12:43:22;;;;;;;;;;;;;;;16.70;55.76;100503.59;5093884;28;1988;-44